Time;durP1;ratioP1;P1;durP2;ratioP2;P2;SDS_P1;SDS_P2;PMS_P1;PMS_P2;Temp;Humidity;BMP_temperature;BMP_pressure;BME280_temperature;BME280_humidity;BME280_pressure;Samples;Min_cycle;Max_cycle;Signal;HPM_P1;HPM_P2
2023/01/31 04:30:35;;;;;;;;;35.00;26.75;;;;;;;;6307207;22;46550;-60
2023/01/31 04:33:01;;;;;;;;;43.50;29.00;;;;;;;;6402962;22;45228;-61
2023/01/31 04:35:26;;;;;;;;;29.00;25.50;;;;;;;;6404103;22;45299;-60
2023/01/31 04:37:51;;;;;;;;;30.50;28.75;;;;;;;;6404013;22;45484;-60
2023/01/31 04:40:17;;;;;;;;;30.00;25.25;;;;;;;;6404089;22;45297;-60
2023/01/31 04:42:42;;;;;;;;;30.00;27.25;;;;;;;;6402768;22;46085;-60
2023/01/31 04:45:07;;;;;;;;;24.50;24.00;;;;;;;;6403006;22;45336;-60
2023/01/31 04:47:32;;;;;;;;;21.25;20.25;;;;;;;;6404499;22;45288;-61
2023/01/31 04:49:58;;;;;;;;;23.50;23.50;;;;;;;;6404226;22;45275;-61
2023/01/31 04:52:23;;;;;;;;;28.25;20.75;;;;;;;;6404293;22;45448;-61
2023/01/31 04:54:49;;;;;;;;;25.50;21.75;;;;;;;;6403987;22;45265;-61
2023/01/31 04:57:14;;;;;;;;;29.25;24.00;;;;;;;;6403980;22;45441;-61
2023/01/31 04:59:39;;;;;;;;;29.75;24.75;;;;;;;;6404012;22;45455;-60
2023/01/31 05:02:04;;;;;;;;;24.75;22.00;;;;;;;;6403468;22;46157;-61
2023/01/31 05:04:30;;;;;;;;;33.00;27.50;;;;;;;;6404357;22;45229;-61
2023/01/31 05:06:55;;;;;;;;;35.00;23.50;;;;;;;;6403038;22;45218;-61
2023/01/31 05:09:21;;;;;;;;;26.25;21.00;;;;;;;;6404162;22;45443;-61
2023/01/31 05:11:46;;;;;;;;;28.00;21.00;;;;;;;;6403753;22;46081;-61
2023/01/31 05:14:13;;;;;;;;;26.25;21.25;;;;;;;;6403381;22;45174;-61
2023/01/31 05:16:38;;;;;;;;;24.25;19.50;;;;;;;;6403897;22;45205;-61
2023/01/31 05:19:04;;;;;;;;;25.00;19.75;;;;;;;;6403698;22;45218;-61
2023/01/31 05:21:29;;;;;;;;;20.67;20.33;;;;;;;;6403373;22;45912;-61
2023/01/31 05:23:54;;;;;;;;;23.00;19.00;;;;;;;;6403225;22;45177;-61
2023/01/31 05:26:19;;;;;;;;;17.50;15.25;;;;;;;;6404232;22;45169;-61
2023/01/31 05:28:44;;;;;;;;;21.00;17.00;;;;;;;;6375459;22;45205;-61
2023/01/31 05:31:11;;;;;;;;;21.67;16.00;;;;;;;;6403440;22;45302;-61
2023/01/31 05:33:37;;;;;;;;;23.25;17.50;;;;;;;;6403472;22;45418;-61
2023/01/31 05:36:02;;;;;;;;;20.00;17.33;;;;;;;;6403603;22;45372;-61
2023/01/31 05:38:27;;;;;;;;;22.25;18.00;;;;;;;;6404321;22;45261;-61
2023/01/31 05:40:52;;;;;;;;;21.75;19.00;;;;;;;;6403354;22;45327;-61
2023/01/31 05:43:18;;;;;;;;;15.00;15.00;;;;;;;;6403837;22;45322;-61
2023/01/31 05:45:44;;;;;;;;;27.00;19.50;;;;;;;;6404043;22;45400;-61
2023/01/31 05:48:10;;;;;;;;;23.75;21.25;;;;;;;;6403028;22;45257;-61
2023/01/31 05:50:35;;;;;;;;;22.50;19.00;;;;;;;;6403559;22;46495;-61
2023/01/31 05:53:04;;;;;;;;;22.67;18.00;;;;;;;;6402252;22;45248;-60
2023/01/31 05:55:29;;;;;;;;;34.25;23.50;;;;;;;;6403572;22;45219;-60
2023/01/31 05:57:55;;;;;;;;;23.75;17.75;;;;;;;;6403756;22;45206;-61
2023/01/31 06:00:21;;;;;;;;;16.33;13.00;;;;;;;;6402295;22;47065;-62
2023/01/31 06:02:47;;;;;;;;;19.67;19.67;;;;;;;;6403207;22;45159;-61
2023/01/31 06:05:12;;;;;;;;;22.67;17.00;;;;;;;;6402836;22;45279;-61
2023/01/31 06:07:37;;;;;;;;;15.33;15.33;;;;;;;;6403259;22;45228;-61
2023/01/31 06:10:03;;;;;;;;;17.33;15.33;;;;;;;;6402737;22;45305;-61
2023/01/31 06:12:28;;;;;;;;;19.33;15.67;;;;;;;;6403315;22;45610;-61
2023/01/31 06:14:53;;;;;;;;;14.00;10.00;;;;;;;;6402043;22;45139;-61
2023/01/31 06:17:18;;;;;;;;;15.67;12.00;;;;;;;;6403512;22;45375;-61
2023/01/31 06:19:44;;;;;;;;;13.67;13.00;;;;;;;;6403898;22;46187;-61
2023/01/31 06:22:09;;;;;;;;;13.00;11.50;;;;;;;;6374447;22;45625;-61
2023/01/31 06:24:34;;;;;;;;;16.67;13.33;;;;;;;;6403267;22;45222;-61
2023/01/31 06:26:59;;;;;;;;;14.00;13.00;;;;;;;;6403664;22;45247;-61
2023/01/31 06:29:25;;;;;;;;;15.00;13.67;;;;;;;;6403409;22;45339;-61
2023/01/31 06:31:52;;;;;;;;;14.33;14.00;;;;;;;;6399817;22;45334;-62
2023/01/31 06:34:17;;;;;;;;;17.33;14.00;;;;;;;;6402260;22;45605;-62
2023/01/31 06:36:42;;;;;;;;;20.33;15.00;;;;;;;;6394453;22;45351;-63
2023/01/31 06:39:09;;;;;;;;;17.67;14.00;;;;;;;;6402026;22;45764;-65
2023/01/31 06:41:34;;;;;;;;;27.00;16.00;;;;;;;;6401714;22;45218;-62
2023/01/31 06:43:59;;;;;;;;;22.00;16.00;;;;;;;;6402966;22;45333;-62
2023/01/31 06:46:24;;;;;;;;;21.33;15.67;;;;;;;;6404695;22;45257;-62
2023/01/31 06:48:50;;;;;;;;;24.00;20.33;;;;;;;;6403777;22;45936;-62
2023/01/31 06:51:15;;;;;;;;;21.25;20.75;;;;;;;;6403280;22;45326;-62
2023/01/31 06:53:40;;;;;;;;;18.33;14.00;;;;;;;;6403246;22;45501;-62
2023/01/31 06:56:06;;;;;;;;;16.33;14.33;;;;;;;;6403311;22;45424;-62
2023/01/31 06:58:32;;;;;;;;;11.33;10.00;;;;;;;;6402942;22;46937;-62
2023/01/31 07:01:03;;;;;;;;;13.00;13.00;;;;;;;;6403087;22;45329;-62
2023/01/31 07:03:28;;;;;;;;;14.00;11.33;;;;;;;;6403702;22;45234;-62
2023/01/31 07:05:54;;;;;;;;;13.33;10.67;;;;;;;;6401066;22;45184;-62
2023/01/31 07:08:19;;;;;;;;;14.33;10.00;;;;;;;;6396704;22;45194;-63
2023/01/31 07:10:46;;;;;;;;;10.00;8.67;;;;;;;;6403806;22;45276;-64
2023/01/31 07:13:11;;;;;;;;;11.00;9.67;;;;;;;;6403384;22;45326;-63
2023/01/31 07:15:36;;;;;;;;;13.67;11.00;;;;;;;;6404020;22;45550;-63
2023/01/31 07:18:02;;;;;;;;;15.00;10.00;;;;;;;;6403349;22;45624;-64
2023/01/31 07:20:27;;;;;;;;;10.67;9.00;;;;;;;;6401575;22;45254;-65
2023/01/31 07:22:53;;;;;;;;;13.67;9.67;;;;;;;;6401800;22;45224;-65
2023/01/31 07:25:18;;;;;;;;;10.00;9.00;;;;;;;;6402225;22;45326;-65
2023/01/31 07:27:43;;;;;;;;;9.33;8.33;;;;;;;;6400859;22;45314;-65
2023/01/31 07:30:09;;;;;;;;;11.00;11.00;;;;;;;;6401334;22;45403;-64
2023/01/31 07:32:34;;;;;;;;;15.67;12.00;;;;;;;;6402594;22;45333;-64
2023/01/31 07:34:59;;;;;;;;;13.67;9.00;;;;;;;;6403310;22;45289;-64
2023/01/31 07:37:24;;;;;;;;;13.00;10.67;;;;;;;;6374915;22;46096;-64
2023/01/31 07:39:50;;;;;;;;;11.00;8.33;;;;;;;;6399203;22;45260;-65
2023/01/31 07:42:15;;;;;;;;;10.33;9.67;;;;;;;;6374389;22;45305;-64
2023/01/31 07:44:40;;;;;;;;;14.67;10.33;;;;;;;;6403322;22;45368;-65
2023/01/31 07:47:05;;;;;;;;;11.33;9.33;;;;;;;;6403069;22;46208;-65
2023/01/31 07:49:30;;;;;;;;;16.00;8.00;;;;;;;;6404316;22;45379;-65
2023/01/31 07:51:55;;;;;;;;;8.67;5.00;;;;;;;;6403139;22;45561;-65
2023/01/31 07:54:21;;;;;;;;;8.67;6.33;;;;;;;;6403763;22;45348;-65
2023/01/31 07:56:46;;;;;;;;;9.67;7.33;;;;;;;;6403717;22;45219;-65
2023/01/31 07:59:12;;;;;;;;;9.00;8.00;;;;;;;;6402682;22;45546;-65
2023/01/31 08:04:21;;;;;;;;;10.67;7.67;;;;;;;;6403822;22;45235;-65
2023/01/31 08:06:47;;;;;;;;;8.00;8.00;;;;;;;;6402885;22;46106;-66
2023/01/31 08:09:12;;;;;;;;;8.67;7.00;;;;;;;;6402310;22;45177;-65
2023/01/31 08:11:37;;;;;;;;;9.00;7.67;;;;;;;;6403506;22;45325;-65
2023/01/31 08:14:03;;;;;;;;;9.00;9.00;;;;;;;;6402425;22;45188;-65
2023/01/31 08:16:28;;;;;;;;;10.33;9.00;;;;;;;;6403748;22;45924;-64
2023/01/31 08:18:53;;;;;;;;;12.00;11.00;;;;;;;;6398885;22;45298;-65
2023/01/31 08:21:19;;;;;;;;;9.67;7.00;;;;;;;;6404556;22;45462;-65
2023/01/31 08:23:44;;;;;;;;;12.67;11.33;;;;;;;;6404063;22;45399;-65
2023/01/31 08:26:09;;;;;;;;;11.00;10.00;;;;;;;;6403033;22;46095;-65
2023/01/31 08:28:35;;;;;;;;;11.67;9.33;;;;;;;;6404103;22;45228;-65
2023/01/31 08:31:00;;;;;;;;;18.67;12.00;;;;;;;;6403040;22;45241;-63
2023/01/31 08:33:26;;;;;;;;;12.00;10.00;;;;;;;;6405023;22;45182;-63
2023/01/31 08:35:51;;;;;;;;;20.67;16.00;;;;;;;;6402755;22;46076;-63
2023/01/31 08:38:16;;;;;;;;;13.67;11.00;;;;;;;;6404000;22;45213;-63
2023/01/31 08:40:42;;;;;;;;;12.00;11.00;;;;;;;;6403895;22;45503;-63
2023/01/31 08:43:07;;;;;;;;;12.33;10.00;;;;;;;;6403952;22;45360;-63
2023/01/31 08:45:32;;;;;;;;;16.00;14.00;;;;;;;;6403883;22;45313;-63
2023/01/31 08:47:58;;;;;;;;;12.67;10.67;;;;;;;;6399474;22;45332;-62
2023/01/31 08:50:24;;;;;;;;;13.67;12.00;;;;;;;;6399045;22;45348;-62
2023/01/31 08:52:52;;;;;;;;;11.00;8.00;;;;;;;;6403319;22;45671;-63
2023/01/31 08:55:18;;;;;;;;;18.00;12.00;;;;;;;;6402113;22;45250;-63
2023/01/31 08:57:43;;;;;;;;;9.67;9.00;;;;;;;;6402419;22;45223;-63
2023/01/31 09:00:09;;;;;;;;;11.33;7.67;;;;;;;;6402251;22;45261;-62
2023/01/31 09:02:34;;;;;;;;;18.67;12.67;;;;;;;;6403391;22;45268;-63
2023/01/31 09:04:59;;;;;;;;;11.67;11.33;;;;;;;;6402623;22;45455;-63
2023/01/31 09:07:24;;;;;;;;;9.67;8.00;;;;;;;;6403440;22;45290;-63
2023/01/31 09:09:49;;;;;;;;;10.33;10.00;;;;;;;;6403645;22;45344;-63
2023/01/31 09:12:15;;;;;;;;;10.00;9.00;;;;;;;;6401705;22;45395;-63
2023/01/31 09:14:40;;;;;;;;;14.00;10.67;;;;;;;;6403188;22;46132;-63
2023/01/31 09:17:06;;;;;;;;;8.67;5.33;;;;;;;;6373690;22;45327;-63
2023/01/31 09:19:32;;;;;;;;;12.00;9.33;;;;;;;;6402185;22;45365;-63
2023/01/31 09:21:57;;;;;;;;;11.00;9.67;;;;;;;;6402275;22;45312;-63
2023/01/31 09:24:22;;;;;;;;;10.00;9.00;;;;;;;;6402530;22;45346;-64
2023/01/31 09:26:47;;;;;;;;;10.67;7.67;;;;;;;;6403250;22;45482;-63
2023/01/31 09:29:12;;;;;;;;;16.33;10.67;;;;;;;;6402776;22;45278;-63
2023/01/31 09:31:37;;;;;;;;;11.33;8.67;;;;;;;;6402413;22;45309;-63
2023/01/31 09:34:03;;;;;;;;;14.67;12.00;;;;;;;;6402505;22;45554;-63
2023/01/31 09:36:28;;;;;;;;;7.33;5.67;;;;;;;;6403102;22;45315;-63
2023/01/31 09:38:55;;;;;;;;;10.67;7.33;;;;;;;;6402027;22;45984;-60
2023/01/31 09:41:35;;;;;;;;;6.33;5.00;;;;;;;;6403245;22;45259;-63
2023/01/31 09:44:12;;;;;;;;;10.67;6.67;;;;;;;;6401803;22;46161;-63
2023/01/31 09:46:43;;;;;;;;;6.33;6.00;;;;;;;;6402299;22;45211;-63
2023/01/31 09:49:14;;;;;;;;;11.00;9.33;;;;;;;;6402648;22;45187;-63
2023/01/31 09:51:39;;;;;;;;;9.67;9.00;;;;;;;;6402748;22;45316;-63
2023/01/31 09:54:06;;;;;;;;;9.67;8.33;;;;;;;;6402169;22;46135;-63
2023/01/31 09:56:41;;;;;;;;;10.67;7.33;;;;;;;;6402712;22;45204;-62
2023/01/31 09:59:21;;;;;;;;;14.00;10.67;;;;;;;;6402678;22;45283;-61
2023/01/31 10:02:04;;;;;;;;;8.33;8.33;;;;;;;;6402502;22;45239;-62
2023/01/31 10:04:44;;;;;;;;;11.33;9.00;;;;;;;;6401852;22;46241;-62
2023/01/31 10:07:14;;;;;;;;;12.67;9.67;;;;;;;;6403706;22;45322;-61
2023/01/31 10:09:45;;;;;;;;;9.00;6.67;;;;;;;;6404999;22;45277;-61
2023/01/31 10:12:13;;;;;;;;;7.33;6.00;;;;;;;;6405623;22;45486;-61
2023/01/31 10:14:49;;;;;;;;;11.67;10.33;;;;;;;;6406028;22;45156;-62
2023/01/31 10:17:20;;;;;;;;;8.00;7.33;;;;;;;;6405106;22;45239;-61
2023/01/31 10:20:04;;;;;;;;;16.33;10.67;;;;;;;;6405726;22;45509;-62
2023/01/31 10:22:41;;;;;;;;;10.67;9.00;;;;;;;;6406383;22;45523;-61
2023/01/31 10:25:06;;;;;;;;;15.00;12.00;;;;;;;;6404927;22;45209;-61
2023/01/31 10:27:36;;;;;;;;;11.00;9.67;;;;;;;;6406434;22;45164;-61
2023/01/31 10:30:03;;;;;;;;;10.00;7.67;;;;;;;;6405406;22;45285;-61
2023/01/31 10:32:45;;;;;;;;;9.00;9.00;;;;;;;;6406156;22;45245;-61
2023/01/31 10:35:18;;;;;;;;;12.67;10.67;;;;;;;;6403639;22;47117;-61
2023/01/31 10:37:46;;;;;;;;;8.00;7.00;;;;;;;;6405882;22;45257;-61
2023/01/31 10:40:13;;;;;;;;;12.67;9.33;;;;;;;;6405335;22;45250;-62
2023/01/31 10:42:41;;;;;;;;;10.33;10.33;;;;;;;;6405870;22;45338;-62
2023/01/31 10:45:16;;;;;;;;;15.00;14.33;;;;;;;;6405708;22;46013;-62
2023/01/31 10:47:52;;;;;;;;;16.00;11.67;;;;;;;;6405251;22;45230;-59
2023/01/31 10:50:23;;;;;;;;;16.33;13.33;;;;;;;;6403907;22;45286;-62
2023/01/31 10:52:57;;;;;;;;;14.33;11.33;;;;;;;;6407092;22;45304;-63
2023/01/31 10:55:34;;;;;;;;;16.33;13.33;;;;;;;;6376794;22;45496;-62
2023/01/31 10:58:00;;;;;;;;;10.33;10.33;;;;;;;;6404537;22;45352;-62
2023/01/31 11:00:27;;;;;;;;;10.67;10.00;;;;;;;;6405874;22;45210;-61
2023/01/31 11:02:53;;;;;;;;;13.67;9.00;;;;;;;;6405406;22;45297;-61
2023/01/31 11:05:20;;;;;;;;;9.67;9.33;;;;;;;;6405311;22;46136;-61
2023/01/31 11:07:45;;;;;;;;;8.00;8.00;;;;;;;;6376208;22;45256;-61
2023/01/31 11:10:22;;;;;;;;;12.00;10.33;;;;;;;;6403522;22;45229;-61
2023/01/31 11:12:55;;;;;;;;;12.00;8.00;;;;;;;;6405367;22;45333;-67
2023/01/31 11:15:22;;;;;;;;;9.00;7.67;;;;;;;;6403306;22;46207;-58
2023/01/31 11:17:48;;;;;;;;;8.00;7.67;;;;;;;;6404934;22;45381;-60
2023/01/31 11:20:19;;;;;;;;;9.67;8.00;;;;;;;;6402836;22;45334;-59
2023/01/31 11:22:45;;;;;;;;;16.33;11.00;;;;;;;;6404249;22;45138;-68
2023/01/31 11:25:16;;;;;;;;;13.67;7.33;;;;;;;;6402785;22;46007;-60
2023/01/31 11:27:42;;;;;;;;;16.33;11.33;;;;;;;;6403148;22;45266;-57
2023/01/31 11:30:31;;;;;;;;;9.33;7.00;;;;;;;;6403983;22;45264;-59
2023/01/31 11:32:56;;;;;;;;;3.00;3.00;;;;;;;;6386905;22;45427;-59
2023/01/31 11:35:24;;;;;;;;;7.67;7.00;;;;;;;;6375680;22;45895;-60
2023/01/31 11:37:51;;;;;;;;;7.67;5.67;;;;;;;;6403756;22;45305;-61
2023/01/31 11:40:21;;;;;;;;;9.33;7.33;;;;;;;;6375709;22;45316;-56
2023/01/31 11:43:06;;;;;;;;;10.67;9.00;;;;;;;;6403968;22;46252;-59
2023/01/31 11:45:37;;;;;;;;;10.33;8.67;;;;;;;;6380704;22;45325;-60
2023/01/31 11:48:21;;;;;;;;;13.33;12.00;;;;;;;;6403789;22;45664;-60
2023/01/31 11:51:01;;;;;;;;;11.33;8.00;;;;;;;;6403645;22;45255;-62
2023/01/31 11:53:42;;;;;;;;;13.67;9.67;;;;;;;;6404711;22;45466;-64
2023/01/31 11:56:21;;;;;;;;;12.33;6.00;;;;;;;;6403836;22;46192;-60
2023/01/31 11:58:48;;;;;;;;;8.00;7.67;;;;;;;;6404079;22;45345;-61
2023/01/31 12:01:15;;;;;;;;;12.33;9.00;;;;;;;;6374814;22;45430;-60
2023/01/31 12:04:10;;;;;;;;;14.33;10.67;;;;;;;;6404740;22;45323;-60
2023/01/31 12:06:36;;;;;;;;;8.00;8.00;;;;;;;;6375228;22;45827;-63
2023/01/31 12:09:04;;;;;;;;;15.67;10.33;;;;;;;;6403673;22;45284;-62
2023/01/31 12:11:30;;;;;;;;;7.33;7.33;;;;;;;;6402080;22;45352;-59
2023/01/31 12:14:10;;;;;;;;;7.00;7.00;;;;;;;;6403464;22;45562;-57
2023/01/31 12:16:36;;;;;;;;;8.33;6.33;;;;;;;;6403373;22;46331;-60
2023/01/31 12:19:10;;;;;;;;;9.67;7.67;;;;;;;;6403187;22;45333;-61
2023/01/31 12:21:41;;;;;;;;;8.33;7.67;;;;;;;;6403857;22;45410;-59
2023/01/31 12:24:21;;;;;;;;;6.67;6.67;;;;;;;;6403504;22;45238;-59
2023/01/31 12:26:50;;;;;;;;;8.33;6.33;;;;;;;;6403629;22;45380;-59
2023/01/31 12:29:15;;;;;;;;;9.67;8.33;;;;;;;;6404288;22;45314;-59
2023/01/31 12:31:52;;;;;;;;;7.00;6.00;;;;;;;;6404138;22;45292;-59
2023/01/31 12:34:18;;;;;;;;;10.33;7.33;;;;;;;;6403787;22;45244;-60
2023/01/31 12:37:06;;;;;;;;;5.67;5.67;;;;;;;;6403597;22;45226;-60
2023/01/31 12:39:47;;;;;;;;;9.00;7.67;;;;;;;;6386117;22;45385;-58
2023/01/31 12:42:23;;;;;;;;;9.00;7.67;;;;;;;;6403738;22;45425;-60
2023/01/31 12:45:05;;;;;;;;;14.33;8.00;;;;;;;;6402472;22;45234;-59
2023/01/31 12:47:30;;;;;;;;;7.00;7.00;;;;;;;;6403321;22;46153;-60
2023/01/31 12:50:01;;;;;;;;;9.00;7.00;;;;;;;;6401088;22;45359;-60
2023/01/31 12:52:29;;;;;;;;;6.00;6.00;;;;;;;;6403852;22;45340;-60
2023/01/31 12:55:19;;;;;;;;;8.00;5.33;;;;;;;;6374631;22;45190;-60
2023/01/31 12:57:44;;;;;;;;;7.00;7.00;;;;;;;;6403651;22;45909;-60
2023/01/31 13:00:15;;;;;;;;;3.00;3.00;;;;;;;;6402747;22;45317;-60
2023/01/31 13:02:51;;;;;;;;;6.33;6.00;;;;;;;;6404026;22;45218;-60
2023/01/31 13:05:17;;;;;;;;;7.00;6.00;;;;;;;;6403033;22;45335;-60
2023/01/31 13:07:47;;;;;;;;;9.00;7.33;;;;;;;;6403605;22;45872;-60
2023/01/31 13:10:31;;;;;;;;;6.67;6.00;;;;;;;;6402841;22;45115;-60
2023/01/31 13:12:57;;;;;;;;;13.33;9.00;;;;;;;;6403095;22;45574;-60
2023/01/31 13:15:25;;;;;;;;;9.33;8.00;;;;;;;;6403351;22;45419;-60
2023/01/31 13:17:54;;;;;;;;;7.33;6.00;;;;;;;;6402544;22;46028;-60
2023/01/31 13:20:30;;;;;;;;;8.67;5.33;;;;;;;;6402644;22;45189;-60
2023/01/31 13:22:58;;;;;;;;;11.00;7.00;;;;;;;;6402240;22;45435;-60
2023/01/31 13:25:29;;;;;;;;;7.00;6.00;;;;;;;;6403545;22;45377;-60
2023/01/31 13:28:00;;;;;;;;;9.00;5.67;;;;;;;;6401973;22;46204;-60
2023/01/31 13:30:43;;;;;;;;;6.00;4.67;;;;;;;;6403303;22;45334;-59
2023/01/31 13:33:27;;;;;;;;;5.00;5.00;;;;;;;;6403220;22;45365;-59
2023/01/31 13:36:11;;;;;;;;;4.00;4.00;;;;;;;;6402806;22;45275;-59
2023/01/31 13:38:39;;;;;;;;;5.00;3.67;;;;;;;;6403329;22;46194;-61
2023/01/31 13:41:07;;;;;;;;;4.33;4.33;;;;;;;;6403058;22;45216;-59
2023/01/31 13:43:32;;;;;;;;;7.00;5.00;;;;;;;;6403391;22;45383;-61
2023/01/31 13:46:06;;;;;;;;;2.00;2.00;;;;;;;;6402463;22;45327;-59
2023/01/31 13:48:51;;;;;;;;;4.00;3.67;;;;;;;;6403155;22;46119;-60
2023/01/31 13:51:32;;;;;;;;;7.00;4.00;;;;;;;;6403302;22;45232;-59
2023/01/31 13:54:09;;;;;;;;;3.33;3.00;;;;;;;;6402715;22;45174;-60
2023/01/31 13:56:37;;;;;;;;;6.33;3.67;;;;;;;;6403316;22;45396;-59
2023/01/31 13:59:06;;;;;;;;;5.00;3.33;;;;;;;;6402612;22;46143;-60
2023/01/31 14:01:33;;;;;;;;;7.67;4.67;;;;;;;;6374433;22;45436;-60
2023/01/31 14:04:11;;;;;;;;;4.33;3.00;;;;;;;;6402271;22;45223;-60
2023/01/31 14:06:51;;;;;;;;;6.00;5.00;;;;;;;;6397299;22;45546;-60
2023/01/31 14:09:22;;;;;;;;;7.00;4.00;;;;;;;;6401247;22;47011;-60
2023/01/31 14:11:47;;;;;;;;;2.33;2.33;;;;;;;;6402380;22;45331;-60
2023/01/31 14:14:18;;;;;;;;;4.67;4.00;;;;;;;;6402794;22;45352;-60
2023/01/31 14:16:45;;;;;;;;;4.00;4.00;;;;;;;;6402298;22;45623;-60
2023/01/31 14:19:20;;;;;;;;;2.67;2.67;;;;;;;;6401355;22;46213;-60
2023/01/31 14:22:00;;;;;;;;;6.67;4.33;;;;;;;;6402241;22;45229;-60
2023/01/31 14:24:44;;;;;;;;;5.33;4.33;;;;;;;;6402786;22;45276;-60
2023/01/31 14:27:13;;;;;;;;;4.00;4.00;;;;;;;;6402415;22;45755;-60
2023/01/31 14:29:40;;;;;;;;;7.00;6.00;;;;;;;;6395275;22;45391;-60
2023/01/31 14:32:12;;;;;;;;;6.67;5.00;;;;;;;;6399061;22;45405;-61
2023/01/31 14:34:37;;;;;;;;;6.67;6.00;;;;;;;;6400336;22;45288;-60
2023/01/31 14:37:09;;;;;;;;;7.33;5.00;;;;;;;;6401503;22;45430;-60
2023/01/31 14:39:36;;;;;;;;;5.67;5.67;;;;;;;;6402005;22;46047;-60
2023/01/31 14:42:11;;;;;;;;;8.00;6.33;;;;;;;;6399527;22;45223;-60
2023/01/31 14:45:02;;;;;;;;;4.67;4.00;;;;;;;;6400816;22;45581;-60
2023/01/31 14:47:30;;;;;;;;;7.00;4.33;;;;;;;;6402518;22;45515;-60
2023/01/31 14:49:57;;;;;;;;;9.00;5.00;;;;;;;;6400124;22;45649;-60
2023/01/31 14:52:34;;;;;;;;;13.67;4.00;;;;;;;;6401195;22;45717;-60
2023/01/31 14:54:59;;;;;;;;;6.67;5.67;;;;;;;;6402902;22;45211;-60
2023/01/31 14:57:26;;;;;;;;;11.33;8.00;;;;;;;;6401928;22;45427;-60
2023/01/31 14:59:57;;;;;;;;;13.00;10.00;;;;;;;;6398240;22;45384;-60
2023/01/31 15:02:22;;;;;;;;;18.00;13.33;;;;;;;;6400591;22;45430;-60
2023/01/31 15:05:14;;;;;;;;;10.00;8.00;;;;;;;;6402763;22;45264;-60
2023/01/31 15:08:11;;;;;;;;;13.00;11.33;;;;;;;;6395411;22;45496;-60
2023/01/31 15:10:56;;;;;;;;;7.67;7.00;;;;;;;;6330497;22;45435;-61
2023/01/31 15:13:41;;;;;;;;;7.00;4.00;;;;;;;;6401604;22;45640;-60
2023/01/31 15:16:09;;;;;;;;;6.67;6.00;;;;;;;;6399688;22;45334;-61
2023/01/31 15:18:34;;;;;;;;;7.33;4.00;;;;;;;;6401983;22;45282;-60
2023/01/31 15:21:03;;;;;;;;;6.33;6.33;;;;;;;;6401939;22;46101;-60
2023/01/31 15:23:30;;;;;;;;;10.33;6.33;;;;;;;;6403111;22;45351;-60
2023/01/31 15:25:57;;;;;;;;;10.00;7.00;;;;;;;;6401533;22;45408;-60
2023/01/31 15:28:29;;;;;;;;;6.33;6.00;;;;;;;;6403114;22;45293;-60
2023/01/31 15:30:59;;;;;;;;;9.00;8.00;;;;;;;;6401458;22;45436;-60
2023/01/31 15:33:28;;;;;;;;;6.33;3.33;;;;;;;;6402415;22;45235;-60
2023/01/31 15:35:59;;;;;;;;;9.00;7.33;;;;;;;;6401743;22;45346;-60
2023/01/31 15:38:31;;;;;;;;;8.00;7.33;;;;;;;;6402809;22;45251;-60
2023/01/31 15:41:16;;;;;;;;;8.33;7.00;;;;;;;;6401645;22;45325;-60
2023/01/31 15:43:41;;;;;;;;;10.67;6.00;;;;;;;;6402634;22;45280;-60
2023/01/31 15:46:42;;;;;;;;;6.33;5.33;;;;;;;;6402746;22;45380;-60
2023/01/31 15:49:20;;;;;;;;;9.33;7.67;;;;;;;;6272306;22;45267;-60
2023/01/31 15:52:00;;;;;;;;;7.67;6.33;;;;;;;;6385056;22;46342;-60
2023/01/31 15:54:25;;;;;;;;;7.67;5.67;;;;;;;;6401757;22;45621;-60
2023/01/31 15:56:51;;;;;;;;;8.00;8.00;;;;;;;;6401947;22;45291;-59
2023/01/31 15:59:17;;;;;;;;;9.00;6.33;;;;;;;;6403492;22;45225;-59
2023/01/31 16:01:49;;;;;;;;;6.67;5.00;;;;;;;;6401444;22;46199;-59
2023/01/31 16:04:14;;;;;;;;;6.67;5.00;;;;;;;;6373341;22;45303;-60
2023/01/31 16:06:40;;;;;;;;;8.00;5.00;;;;;;;;6401585;22;45204;-60
2023/01/31 16:09:06;;;;;;;;;8.00;8.00;;;;;;;;6401270;22;45227;-59
2023/01/31 16:11:33;;;;;;;;;6.00;5.33;;;;;;;;6402688;22;46951;-60
2023/01/31 16:14:00;;;;;;;;;9.50;8.00;;;;;;;;6401577;22;45366;-60
2023/01/31 16:16:26;;;;;;;;;8.33;8.33;;;;;;;;6403238;22;45273;-60
2023/01/31 16:18:53;;;;;;;;;6.67;6.67;;;;;;;;6402454;22;45636;-59
2023/01/31 16:21:53;;;;;;;;;9.67;7.00;;;;;;;;6402085;22;46369;-59
2023/01/31 16:24:20;;;;;;;;;8.00;6.00;;;;;;;;6272980;22;45330;-60
2023/01/31 16:26:51;;;;;;;;;9.67;6.67;;;;;;;;6355627;22;45563;-59
2023/01/31 16:29:18;;;;;;;;;10.33;8.00;;;;;;;;6404358;22;45223;-60
2023/01/31 16:31:50;;;;;;;;;8.00;8.00;;;;;;;;6402431;22;45546;-60
2023/01/31 16:34:29;;;;;;;;;7.00;7.00;;;;;;;;6403576;22;45203;-59
2023/01/31 16:36:58;;;;;;;;;8.00;8.00;;;;;;;;6403500;22;45640;-59
2023/01/31 16:39:23;;;;;;;;;10.00;8.33;;;;;;;;6403213;22;45241;-59
2023/01/31 16:41:50;;;;;;;;;11.00;10.00;;;;;;;;6403824;22;46035;-60
2023/01/31 16:44:19;;;;;;;;;12.00;7.00;;;;;;;;6404023;22;45656;-59
2023/01/31 16:46:45;;;;;;;;;9.67;8.33;;;;;;;;6403479;22;45287;-59
2023/01/31 16:49:43;;;;;;;;;10.67;10.00;;;;;;;;6402930;22;45379;-59
2023/01/31 16:52:15;;;;;;;;;11.33;9.00;;;;;;;;6331899;22;45561;-60
2023/01/31 16:54:47;;;;;;;;;8.00;8.00;;;;;;;;6403358;22;45341;-61
2023/01/31 16:57:32;;;;;;;;;10.33;8.33;;;;;;;;6373349;22;45387;-61
2023/01/31 16:59:58;;;;;;;;;12.67;10.67;;;;;;;;6374334;22;45333;-60
2023/01/31 17:02:26;;;;;;;;;7.33;5.00;;;;;;;;6403461;22;45329;-60
2023/01/31 17:04:53;;;;;;;;;13.67;8.00;;;;;;;;6402991;22;45366;-60
2023/01/31 17:07:36;;;;;;;;;11.33;9.67;;;;;;;;6403851;22;45255;-61
2023/01/31 17:10:03;;;;;;;;;13.33;12.00;;;;;;;;6402047;22;45276;-60
2023/01/31 17:12:31;;;;;;;;;13.67;11.00;;;;;;;;6402741;22;45242;-60
2023/01/31 17:14:57;;;;;;;;;21.67;13.67;;;;;;;;6402524;22;45198;-61
2023/01/31 17:17:26;;;;;;;;;21.67;17.33;;;;;;;;6376877;22;45253;-60
2023/01/31 17:19:51;;;;;;;;;13.67;10.00;;;;;;;;6402921;22;45352;-61
2023/01/31 17:22:17;;;;;;;;;19.67;14.33;;;;;;;;6403092;22;46089;-59
2023/01/31 17:24:42;;;;;;;;;14.00;8.67;;;;;;;;6403925;22;45327;-59
2023/01/31 17:27:11;;;;;;;;;13.67;10.33;;;;;;;;6373611;22;45393;-61
2023/01/31 17:29:37;;;;;;;;;14.33;8.00;;;;;;;;6400412;22;45532;-59
2023/01/31 17:32:02;;;;;;;;;9.33;8.00;;;;;;;;6401405;22;45450;-59
2023/01/31 17:34:27;;;;;;;;;11.00;8.67;;;;;;;;6402244;22;45238;-59
2023/01/31 17:36:52;;;;;;;;;11.00;9.00;;;;;;;;6403194;22;45373;-60
2023/01/31 17:39:17;;;;;;;;;10.33;10.00;;;;;;;;6402352;22;45518;-59
2023/01/31 17:41:45;;;;;;;;;10.33;9.00;;;;;;;;6403526;22;46107;-60
2023/01/31 17:44:12;;;;;;;;;11.00;8.67;;;;;;;;6373592;22;45282;-60
2023/01/31 17:46:37;;;;;;;;;11.00;7.00;;;;;;;;6403333;22;45290;-60
2023/01/31 17:49:02;;;;;;;;;14.67;9.00;;;;;;;;6402173;22;46012;-60
2023/01/31 17:51:27;;;;;;;;;13.33;10.00;;;;;;;;6402640;22;45168;-60
2023/01/31 17:53:53;;;;;;;;;12.67;12.00;;;;;;;;6402679;22;45422;-60
2023/01/31 17:56:18;;;;;;;;;12.67;10.33;;;;;;;;6403431;22;45271;-59
2023/01/31 17:58:43;;;;;;;;;11.00;9.67;;;;;;;;6402585;22;45218;-60
2023/01/31 18:01:09;;;;;;;;;11.33;9.67;;;;;;;;6401793;22;46236;-59
2023/01/31 18:03:34;;;;;;;;;16.67;14.67;;;;;;;;6402929;22;45599;-60
2023/01/31 18:06:04;;;;;;;;;21.00;18.67;;;;;;;;6402251;22;45234;-60
2023/01/31 18:08:29;;;;;;;;;16.00;12.33;;;;;;;;6403057;22;45270;-60
2023/01/31 18:10:54;;;;;;;;;13.67;10.00;;;;;;;;6402685;22;45371;-60
2023/01/31 18:13:19;;;;;;;;;11.00;9.67;;;;;;;;6403357;22;45320;-60
2023/01/31 18:15:44;;;;;;;;;13.67;11.67;;;;;;;;6403400;22;45338;-60
2023/01/31 18:18:10;;;;;;;;;17.00;14.67;;;;;;;;6402590;22;45302;-60
2023/01/31 18:20:37;;;;;;;;;11.00;11.00;;;;;;;;6402767;22;46237;-60
2023/01/31 18:23:02;;;;;;;;;13.67;12.33;;;;;;;;6372270;22;45406;-60
2023/01/31 18:25:29;;;;;;;;;16.00;13.67;;;;;;;;6401978;22;45544;-60
2023/01/31 18:27:54;;;;;;;;;14.67;11.00;;;;;;;;6400249;22;45545;-59
2023/01/31 18:30:20;;;;;;;;;13.33;13.33;;;;;;;;6402337;22;45277;-59
2023/01/31 18:32:45;;;;;;;;;11.00;11.00;;;;;;;;6403712;22;45391;-59
2023/01/31 18:35:10;;;;;;;;;13.00;13.00;;;;;;;;6401800;22;45541;-60
2023/01/31 18:37:35;;;;;;;;;6.00;6.00;;;;;;;;6402222;22;45438;-59
2023/01/31 18:40:00;;;;;;;;;15.67;11.33;;;;;;;;6403433;22;45374;-59
2023/01/31 18:42:26;;;;;;;;;14.00;10.00;;;;;;;;6402982;22;45431;-60
2023/01/31 18:44:51;;;;;;;;;18.00;13.00;;;;;;;;6374190;22;45157;-60
2023/01/31 18:47:16;;;;;;;;;8.00;8.00;;;;;;;;6402800;22;45278;-60
2023/01/31 18:49:41;;;;;;;;;11.33;10.00;;;;;;;;6402746;22;45359;-60
2023/01/31 18:52:07;;;;;;;;;20.33;14.00;;;;;;;;6402688;22;45324;-59
2023/01/31 18:54:33;;;;;;;;;13.33;11.00;;;;;;;;6374835;22;45393;-59
2023/01/31 18:56:58;;;;;;;;;10.67;10.67;;;;;;;;6402984;22;45345;-61
2023/01/31 18:59:23;;;;;;;;;17.33;10.67;;;;;;;;6402431;22;45305;-60
2023/01/31 19:01:50;;;;;;;;;11.67;9.67;;;;;;;;6403571;22;45354;-60
2023/01/31 19:04:15;;;;;;;;;7.00;1.00;;;;;;;;6403267;22;45412;-60
2023/01/31 19:06:40;;;;;;;;;14.67;10.67;;;;;;;;6404277;22;45272;-60
2023/01/31 19:09:07;;;;;;;;;15.33;13.33;;;;;;;;6400310;22;45935;-63
2023/01/31 19:11:32;;;;;;;;;11.33;10.67;;;;;;;;6403296;22;45363;-63